Terminal Aerodrome Forecast
Issued by NWS

Home | Current Version | Previous Version | Text Only | Print | Product List | Glossary On
Versions: 1 2 3 4 5 6 7 8 9 10 11 12 13 14 15 16 17 18 19 20
000
FTUS41 KCAR 041124
TAFFVE
TAF
KFVE 041124Z 0412/0512 20007KT 5SM -SN OVC035
     FM041800 26015G26KT P6SM BKN035
     FM042200 25012KT P6SM BKN050
     FM050500 29010KT P6SM SCT050=

USA.gov is the U.S. government's official web portal to all federal, state and local government web resources and services.